Time;durP1;ratioP1;P1;durP2;ratioP2;P2;SDS_P1;SDS_P2;PMS_P1;PMS_P2;Temp;Humidity;BMP_temperature;BMP_pressure;BME280_temperature;BME280_humidity;BME280_pressure;Samples;Min_cycle;Max_cycle;Signal;HPM_P1;HPM_P2
2022/09/27 00:01:02;;;;;;;19.35;2.65;;;;;;;;;;4932228;29;20036;-85
2022/09/27 00:03:28;;;;;;;21.15;2.30;;;;;;;;;;4931116;29;20551;-83
2022/09/27 00:06:20;;;;;;;18.33;2.88;;;;;;;;;;4922172;29;20040;-84
2022/09/27 00:08:46;;;;;;;12.73;2.75;;;;;;;;;;4911512;29;20078;-83
2022/09/27 00:11:29;;;;;;;13.90;2.85;;;;;;;;;;4913864;29;20055;-83
2022/09/27 00:13:56;;;;;;;17.95;2.85;;;;;;;;;;4931388;29;20031;-84
2022/09/27 00:16:23;;;;;;;17.67;2.63;;;;;;;;;;4931903;29;20031;-84
2022/09/27 00:18:49;;;;;;;21.33;3.28;;;;;;;;;;4931964;29;20053;-84
2022/09/27 00:21:15;;;;;;;23.48;2.60;;;;;;;;;;4931600;29;20038;-83
2022/09/27 00:23:42;;;;;;;15.75;2.78;;;;;;;;;;4931442;29;20031;-83
2022/09/27 00:26:10;;;;;;;22.00;2.90;;;;;;;;;;4917795;29;20106;-83
2022/09/27 00:28:36;;;;;;;19.20;3.53;;;;;;;;;;4920535;29;20496;-84
2022/09/27 00:31:02;;;;;;;21.42;3.00;;;;;;;;;;4931817;29;20024;-84
2022/09/27 00:33:28;;;;;;;23.75;3.17;;;;;;;;;;4928607;29;20035;-83
2022/09/27 00:35:54;;;;;;;15.00;2.53;;;;;;;;;;4931841;29;20095;-85
2022/09/27 00:38:20;;;;;;;20.95;3.28;;;;;;;;;;4930418;29;20169;-84
2022/09/27 00:40:47;;;;;;;17.83;2.60;;;;;;;;;;4931786;29;20516;-84
2022/09/27 00:43:18;;;;;;;17.75;2.60;;;;;;;;;;4917011;29;20028;-82
2022/09/27 00:45:46;;;;;;;20.90;2.25;;;;;;;;;;4912171;29;20039;-84
2022/09/27 00:48:15;;;;;;;12.48;2.60;;;;;;;;;;4919500;29;20103;-84
2022/09/27 00:50:44;;;;;;;16.25;2.65;;;;;;;;;;4930440;29;20412;-84
2022/09/27 00:53:13;;;;;;;13.80;2.13;;;;;;;;;;4931738;29;20035;-84
2022/09/27 00:55:42;;;;;;;19.85;2.00;;;;;;;;;;4924622;29;20038;-83
2022/09/27 00:58:09;;;;;;;22.15;2.45;;;;;;;;;;4930299;29;20098;-85
2022/09/27 01:00:36;;;;;;;10.38;2.53;;;;;;;;;;4931531;29;20028;-84
2022/09/27 01:03:05;;;;;;;10.90;1.92;;;;;;;;;;4930648;29;20493;-85
2022/09/27 01:05:31;;;;;;;16.50;2.33;;;;;;;;;;4931878;29;20031;-84
2022/09/27 01:07:59;;;;;;;17.65;2.75;;;;;;;;;;4935312;29;20027;-84
2022/09/27 01:10:28;;;;;;;24.30;2.45;;;;;;;;;;4935220;29;20153;-83
2022/09/27 01:12:54;;;;;;;20.90;2.20;;;;;;;;;;4934694;29;20054;-83
2022/09/27 01:15:36;;;;;;;9.60;2.15;;;;;;;;;;4925530;29;20440;-84
2022/09/27 01:18:08;;;;;;;11.77;2.40;;;;;;;;;;4916051;29;20025;-84
2022/09/27 01:20:57;;;;;;;15.93;2.17;;;;;;;;;;4930537;29;20035;-85
2022/09/27 01:23:41;;;;;;;14.95;2.30;;;;;;;;;;4916073;29;20036;-84
2022/09/27 01:26:07;;;;;;;12.32;1.90;;;;;;;;;;4915959;29;20028;-84
2022/09/27 01:28:39;;;;;;;10.48;2.00;;;;;;;;;;4915723;29;20111;-82
2022/09/27 01:31:19;;;;;;;18.00;2.85;;;;;;;;;;4934003;29;20035;-82
2022/09/27 01:33:54;;;;;;;11.05;1.73;;;;;;;;;;4929986;29;20416;-83
2022/09/27 01:36:20;;;;;;;20.85;3.60;;;;;;;;;;4934825;29;20024;-83
2022/09/27 01:38:55;;;;;;;12.07;2.25;;;;;;;;;;4935099;29;20036;-82
2022/09/27 01:41:21;;;;;;;17.55;2.15;;;;;;;;;;4932990;29;20527;-83
2022/09/27 01:43:50;;;;;;;12.70;2.53;;;;;;;;;;4934494;29;20032;-82
2022/09/27 01:46:35;;;;;;;20.20;2.08;;;;;;;;;;4922818;29;20076;-82
2022/09/27 01:49:03;;;;;;;10.32;1.90;;;;;;;;;;4918701;29;20035;-82
2022/09/27 01:51:38;;;;;;;15.95;2.47;;;;;;;;;;4934660;29;20137;-82
2022/09/27 01:54:05;;;;;;;10.52;1.88;;;;;;;;;;4933156;29;20035;-82
2022/09/27 01:56:31;;;;;;;10.13;2.08;;;;;;;;;;4922547;29;20028;-83
2022/09/27 01:59:04;;;;;;;18.70;3.17;;;;;;;;;;4924571;29;20484;-83
2022/09/27 02:01:32;;;;;;;13.82;2.90;;;;;;;;;;4932934;29;20047;-82
2022/09/27 02:04:00;;;;;;;12.55;2.17;;;;;;;;;;4929862;29;20023;-89
2022/09/27 02:06:30;;;;;;;11.57;2.22;;;;;;;;;;4932244;29;20036;-87
2022/09/27 02:09:01;;;;;;;14.10;2.58;;;;;;;;;;4923780;29;20016;-86
2022/09/27 02:11:27;;;;;;;13.55;2.40;;;;;;;;;;4938725;29;20079;-87
2022/09/27 02:14:07;;;;;;;14.55;2.22;;;;;;;;;;4940288;29;20024;-86
2022/09/27 02:16:47;;;;;;;12.77;2.55;;;;;;;;;;4940443;29;20132;-85
2022/09/27 02:19:13;;;;;;;17.20;2.53;;;;;;;;;;4920984;29;20072;-87
2022/09/27 02:21:45;;;;;;;19.88;2.20;;;;;;;;;;4928119;29;20027;-88
2022/09/27 02:24:13;;;;;;;14.35;2.28;;;;;;;;;;4929271;29;20292;-88
2022/09/27 02:26:41;;;;;;;;;;;;;;;;;;4931886;29;20028;-89
2022/09/27 02:29:18;;;;;;;12.63;2.33;;;;;;;;;;4919638;29;19918;-87
2022/09/27 02:31:53;;;;;;;20.83;2.90;;;;;;;;;;4933145;29;20059;-90
2022/09/27 02:34:22;;;;;;;11.82;2.22;;;;;;;;;;4933932;29;20090;-88
2022/09/27 02:36:50;;;;;;;14.52;2.65;;;;;;;;;;4934042;29;20067;-89
2022/09/27 02:39:19;;;;;;;15.32;2.47;;;;;;;;;;4932861;29;20071;-89
2022/09/27 02:41:46;;;;;;;18.63;2.58;;;;;;;;;;4932790;29;20032;-88
2022/09/27 02:44:13;;;;;;;11.85;2.47;;;;;;;;;;4934226;29;20031;-88
2022/09/27 02:47:01;;;;;;;13.85;2.45;;;;;;;;;;4934063;29;20019;-89
2022/09/27 02:49:30;;;;;;;16.80;2.20;;;;;;;;;;4933466;29;20047;-86
2022/09/27 02:52:11;;;;;;;20.70;2.60;;;;;;;;;;4933076;29;20044;-86
2022/09/27 02:54:47;;;;;;;20.33;2.55;;;;;;;;;;4929374;29;20107;-87
2022/09/27 02:57:28;;;;;;;18.08;2.80;;;;;;;;;;4923205;29;20036;-86
2022/09/27 03:00:09;;;;;;;19.48;2.20;;;;;;;;;;4929673;29;20522;-86
2022/09/27 03:02:48;;;;;;;23.77;2.55;;;;;;;;;;4929605;29;20024;-86
2022/09/27 03:05:20;;;;;;;12.13;2.22;;;;;;;;;;4931788;29;20259;-86
2022/09/27 03:07:46;;;;;;;18.88;2.72;;;;;;;;;;4931965;29;20070;-85
2022/09/27 03:10:23;;;;;;;18.10;2.60;;;;;;;;;;4931745;29;20028;-87
2022/09/27 03:12:50;;;;;;;18.30;3.70;;;;;;;;;;4930656;29;20031;-85
2022/09/27 03:15:16;;;;;;;23.88;3.90;;;;;;;;;;4929516;29;20087;-85
2022/09/27 03:17:43;;;;;;;15.13;2.25;;;;;;;;;;4928198;29;20031;-86
2022/09/27 03:20:09;;;;;;;11.70;2.33;;;;;;;;;;4930150;29;20492;-86
2022/09/27 03:22:36;;;;;;;15.65;2.47;;;;;;;;;;4926910;29;20050;-86
2022/09/27 03:25:02;;;;;;;14.90;2.60;;;;;;;;;;4928326;29;20126;-87
2022/09/27 03:27:28;;;;;;;14.77;2.55;;;;;;;;;;4931248;29;20055;-87
2022/09/27 03:29:55;;;;;;;18.48;3.15;;;;;;;;;;4932721;29;20031;-86
2022/09/27 03:32:21;;;;;;;16.23;2.50;;;;;;;;;;4933386;29;20028;-86
2022/09/27 03:34:47;;;;;;;17.38;2.67;;;;;;;;;;4932446;29;20046;-86
2022/09/27 03:37:13;;;;;;;17.13;2.28;;;;;;;;;;4932753;29;20075;-87
2022/09/27 03:39:39;;;;;;;20.58;2.78;;;;;;;;;;4932693;29;20039;-86
2022/09/27 03:42:05;;;;;;;12.95;2.30;;;;;;;;;;4931272;29;20054;-86
2022/09/27 03:44:31;;;;;;;16.30;2.15;;;;;;;;;;4924544;29;20024;-86
2022/09/27 03:46:58;;;;;;;13.25;2.22;;;;;;;;;;4928688;29;20031;-87
2022/09/27 03:49:24;;;;;;;18.77;3.05;;;;;;;;;;4931651;29;20039;-89
2022/09/27 03:51:50;;;;;;;18.70;2.38;;;;;;;;;;4920004;29;20111;-89
2022/09/27 03:54:16;;;;;;;16.65;2.60;;;;;;;;;;4930211;29;20127;-90
2022/09/27 03:56:42;;;;;;;15.98;2.53;;;;;;;;;;4932584;29;20115;-88
2022/09/27 03:59:08;;;;;;;16.80;2.38;;;;;;;;;;4931512;29;20067;-88
2022/09/27 04:01:36;;;;;;;9.35;2.00;;;;;;;;;;4931495;29;20031;-88
2022/09/27 04:04:02;;;;;;;15.60;2.77;;;;;;;;;;4930918;29;20488;-88
2022/09/27 04:06:28;;;;;;;22.63;3.08;;;;;;;;;;4930708;29;20024;-89
2022/09/27 04:08:54;;;;;;;18.55;2.25;;;;;;;;;;4917568;29;20107;-88
2022/09/27 04:11:22;;;;;;;11.85;2.25;;;;;;;;;;4932355;29;20607;-89
2022/09/27 04:13:48;;;;;;;14.00;2.20;;;;;;;;;;4922293;29;20026;-87
2022/09/27 04:16:15;;;;;;;19.10;2.80;;;;;;;;;;4911646;29;20084;-88
2022/09/27 04:18:41;;;;;;;16.63;2.40;;;;;;;;;;4918768;29;20483;-88
2022/09/27 04:21:08;;;;;;;20.13;3.47;;;;;;;;;;4931709;29;20052;-89
2022/09/27 04:23:34;;;;;;;13.80;2.63;;;;;;;;;;4924898;29;20228;-88
2022/09/27 04:26:00;;;;;;;14.55;2.28;;;;;;;;;;4928786;29;20500;-89
2022/09/27 04:28:29;;;;;;;11.40;2.58;;;;;;;;;;4919100;29;20106;-89
2022/09/27 04:30:55;;;;;;;17.88;2.63;;;;;;;;;;4927474;29;20122;-89
2022/09/27 04:33:22;;;;;;;16.55;2.60;;;;;;;;;;4927298;29;20032;-89
2022/09/27 04:38:33;;;;;;;16.73;2.20;;;;;;;;;;4925223;29;20043;-88
2022/09/27 04:41:00;;;;;;;10.60;2.30;;;;;;;;;;4933723;29;20028;-91
2022/09/27 04:43:27;;;;;;;17.87;2.73;;;;;;;;;;4935672;29;20028;-87
2022/09/27 04:45:53;;;;;;;10.48;2.95;;;;;;;;;;4935716;29;20035;-88
2022/09/27 04:48:19;;;;;;;16.67;2.30;;;;;;;;;;4936304;29;20238;-88
2022/09/27 04:50:45;;;;;;;19.65;2.78;;;;;;;;;;4939850;29;20051;-88
2022/09/27 04:53:14;;;;;;;23.67;2.55;;;;;;;;;;4941404;29;20110;-88
2022/09/27 04:55:44;;;;;;;17.08;2.25;;;;;;;;;;4948079;29;20052;-88
2022/09/27 04:58:10;;;;;;;18.33;3.45;;;;;;;;;;4942917;29;20071;-90
2022/09/27 05:00:36;;;;;;;16.17;2.80;;;;;;;;;;4936088;29;20519;-88
2022/09/27 05:03:02;;;;;;;18.48;2.70;;;;;;;;;;4935839;29;20066;-89
2022/09/27 05:05:28;;;;;;;19.15;2.75;;;;;;;;;;4936459;29;20028;-89
2022/09/27 05:07:55;;;;;;;14.52;2.50;;;;;;;;;;4936009;29;20393;-88
2022/09/27 05:10:21;;;;;;;19.75;2.88;;;;;;;;;;4935624;29;20118;-89
2022/09/27 05:12:47;;;;;;;23.60;3.03;;;;;;;;;;4935826;29;20034;-89
2022/09/27 05:15:13;;;;;;;16.02;2.72;;;;;;;;;;4935807;29;20026;-89
2022/09/27 05:17:39;;;;;;;17.13;2.63;;;;;;;;;;4934628;29;20473;-88
2022/09/27 05:20:05;;;;;;;23.80;2.88;;;;;;;;;;4935820;29;20053;-89
2022/09/27 05:22:31;;;;;;;16.25;3.22;;;;;;;;;;4934228;29;20024;-88
2022/09/27 05:24:57;;;;;;;18.08;3.10;;;;;;;;;;4935044;29;20090;-88
2022/09/27 05:27:23;;;;;;;16.58;3.35;;;;;;;;;;4934242;29;20383;-88
2022/09/27 05:29:49;;;;;;;17.70;2.53;;;;;;;;;;4934155;29;20126;-88
2022/09/27 05:32:15;;;;;;;14.05;2.67;;;;;;;;;;4934070;29;20034;-88
2022/09/27 05:34:42;;;;;;;15.55;2.40;;;;;;;;;;4935253;29;20039;-89
2022/09/27 05:37:08;;;;;;;17.17;2.83;;;;;;;;;;4933885;29;20032;-88
2022/09/27 05:39:34;;;;;;;23.83;3.08;;;;;;;;;;4935073;29;20554;-89
2022/09/27 05:42:03;;;;;;;19.88;2.88;;;;;;;;;;4934743;29;20071;-89
2022/09/27 05:44:29;;;;;;;14.80;2.25;;;;;;;;;;4934714;29;20028;-89
2022/09/27 05:46:56;;;;;;;15.25;2.95;;;;;;;;;;4933729;29;20024;-89
2022/09/27 05:49:22;;;;;;;13.52;3.08;;;;;;;;;;4933812;29;20267;-88
2022/09/27 05:51:48;;;;;;;10.98;2.80;;;;;;;;;;4933438;29;20031;-89
2022/09/27 05:54:14;;;;;;;15.93;3.20;;;;;;;;;;4934912;29;20039;-88
2022/09/27 05:56:40;;;;;;;16.42;2.33;;;;;;;;;;4933380;29;20503;-89
2022/09/27 05:59:06;;;;;;;18.50;2.70;;;;;;;;;;4933545;29;20024;-88
2022/09/27 06:01:32;;;;;;;16.73;3.92;;;;;;;;;;4934416;29;20036;-88
2022/09/27 06:03:58;;;;;;;22.55;2.65;;;;;;;;;;4935441;29;20015;-88
2022/09/27 06:06:24;;;;;;;14.38;2.88;;;;;;;;;;4934726;29;20384;-88
2022/09/27 06:08:50;;;;;;;13.35;2.67;;;;;;;;;;4934611;29;20032;-89
2022/09/27 06:11:16;;;;;;;21.83;3.13;;;;;;;;;;4934622;29;20034;-89
2022/09/27 06:13:42;;;;;;;12.10;2.50;;;;;;;;;;4933203;29;20079;-88
2022/09/27 06:16:10;;;;;;;15.80;2.30;;;;;;;;;;4933041;29;20024;-87
2022/09/27 06:18:37;;;;;;;14.10;2.35;;;;;;;;;;4933259;29;20440;-88
2022/09/27 06:21:04;;;;;;;9.52;2.03;;;;;;;;;;4933959;29;20052;-88
2022/09/27 06:23:33;;;;;;;17.70;2.85;;;;;;;;;;4933973;29;20071;-88
2022/09/27 06:26:04;;;;;;;23.50;2.80;;;;;;;;;;4935159;29;20028;-90
2022/09/27 06:28:30;;;;;;;12.05;2.83;;;;;;;;;;4933839;29;20547;-89
2022/09/27 06:30:56;;;;;;;11.63;2.33;;;;;;;;;;4933174;29;20028;-88
2022/09/27 06:33:22;;;;;;;14.32;2.40;;;;;;;;;;4932793;29;20063;-89
2022/09/27 06:35:48;;;;;;;15.77;2.72;;;;;;;;;;4932878;29;20032;-87
2022/09/27 06:38:20;;;;;;;15.55;2.17;;;;;;;;;;4933906;29;20067;-88
2022/09/27 06:40:46;;;;;;;14.77;2.78;;;;;;;;;;4934003;29;20032;-88
2022/09/27 06:43:13;;;;;;;17.42;2.85;;;;;;;;;;4932718;29;20448;-89
2022/09/27 06:45:39;;;;;;;19.27;2.72;;;;;;;;;;4934065;29;20027;-88
2022/09/27 06:48:06;;;;;;;16.65;4.00;;;;;;;;;;4932731;29;20023;-89
2022/09/27 06:50:33;;;;;;;9.07;2.60;;;;;;;;;;4933406;29;20036;-88
2022/09/27 06:53:00;;;;;;;14.40;2.72;;;;;;;;;;4932514;29;20425;-89
2022/09/27 06:55:26;;;;;;;16.40;2.70;;;;;;;;;;4932621;29;20032;-88
2022/09/27 07:00:41;;;;;;;;;;;;;;;;;;4934612;29;20046;-88
2022/09/27 07:03:08;;;;;;;15.10;2.67;;;;;;;;;;4932970;29;19906;-88
2022/09/27 07:05:34;;;;;;;18.52;3.35;;;;;;;;;;4933267;29;20031;-89
2022/09/27 07:08:01;;;;;;;18.15;2.65;;;;;;;;;;4933621;29;20043;-88
2022/09/27 07:10:28;;;;;;;12.65;2.78;;;;;;;;;;4933471;29;20032;-88
2022/09/27 07:12:57;;;;;;;20.42;3.75;;;;;;;;;;4932218;29;20024;-89
2022/09/27 07:15:23;;;;;;;18.17;3.00;;;;;;;;;;4932153;29;20032;-88
2022/09/27 07:17:59;;;;;;;23.17;3.78;;;;;;;;;;4932080;29;20059;-88
2022/09/27 07:20:25;;;;;;;15.82;2.63;;;;;;;;;;4931862;29;20123;-89
2022/09/27 07:22:52;;;;;;;17.95;2.67;;;;;;;;;;4931957;29;20507;-89
2022/09/27 07:25:18;;;;;;;17.40;2.72;;;;;;;;;;4933147;29;20057;-88
2022/09/27 07:27:44;;;;;;;15.18;3.10;;;;;;;;;;4933806;29;20027;-88
2022/09/27 07:30:10;;;;;;;17.45;2.67;;;;;;;;;;4940584;29;20531;-89
2022/09/27 07:32:37;;;;;;;18.27;2.58;;;;;;;;;;4940150;29;20095;-89
2022/09/27 07:35:03;;;;;;;16.67;3.20;;;;;;;;;;4940941;29;20040;-88
2022/09/27 07:37:31;;;;;;;20.85;2.92;;;;;;;;;;4935856;29;20095;-88
2022/09/27 07:39:57;;;;;;;19.75;2.83;;;;;;;;;;4931938;29;20040;-88
2022/09/27 07:42:23;;;;;;;19.33;3.15;;;;;;;;;;4931828;29;20082;-88
2022/09/27 07:44:49;;;;;;;15.82;3.28;;;;;;;;;;4931679;29;20031;-89
2022/09/27 07:47:17;;;;;;;20.38;2.80;;;;;;;;;;4931640;29;20032;-89
2022/09/27 07:49:43;;;;;;;16.17;2.80;;;;;;;;;;4931629;29;20020;-87
2022/09/27 07:52:09;;;;;;;21.13;2.72;;;;;;;;;;4933035;29;20393;-89
2022/09/27 07:54:36;;;;;;;19.42;3.45;;;;;;;;;;4933447;29;20015;-88
2022/09/27 07:57:02;;;;;;;20.90;2.80;;;;;;;;;;4931375;29;20032;-88
2022/09/27 07:59:28;;;;;;;16.85;2.80;;;;;;;;;;4931539;29;20435;-89
2022/09/27 08:01:54;;;;;;;17.58;4.68;;;;;;;;;;4932753;29;20027;-88
2022/09/27 08:04:21;;;;;;;14.60;2.65;;;;;;;;;;4931360;29;20059;-88
2022/09/27 08:06:47;;;;;;;23.95;3.08;;;;;;;;;;4931452;29;20056;-89
2022/09/27 08:09:13;;;;;;;22.75;3.05;;;;;;;;;;4931294;29;20028;-89
2022/09/27 08:11:39;;;;;;;14.52;2.55;;;;;;;;;;4932371;29;20034;-88
2022/09/27 08:14:05;;;;;;;24.70;3.63;;;;;;;;;;4932134;29;20039;-89
2022/09/27 08:16:34;;;;;;;19.67;2.92;;;;;;;;;;4932601;29;20028;-87
2022/09/27 08:19:00;;;;;;;15.23;2.55;;;;;;;;;;4932551;29;20039;-88
2022/09/27 08:21:26;;;;;;;21.38;3.13;;;;;;;;;;4932326;29;20027;-88
2022/09/27 08:23:52;;;;;;;19.35;3.03;;;;;;;;;;4931173;29;20023;-88
2022/09/27 08:26:19;;;;;;;21.02;3.08;;;;;;;;;;4932401;29;20111;-88
2022/09/27 08:28:46;;;;;;;29.13;3.85;;;;;;;;;;4931073;29;20078;-88
2022/09/27 08:31:12;;;;;;;18.60;2.90;;;;;;;;;;4930979;29;20051;-88
2022/09/27 08:33:38;;;;;;;20.77;3.10;;;;;;;;;;4933082;29;20500;-89
2022/09/27 08:36:10;;;;;;;21.50;2.92;;;;;;;;;;4931185;29;20028;-88
2022/09/27 08:38:36;;;;;;;24.70;3.35;;;;;;;;;;4931733;29;20075;-88
2022/09/27 08:41:11;;;;;;;24.70;3.35;;;;;;;;;;4931016;29;20087;-90
2022/09/27 08:43:43;;;;;;;23.48;3.75;;;;;;;;;;4931802;29;20115;-89
2022/09/27 08:46:09;;;;;;;21.80;3.40;;;;;;;;;;4931610;29;20024;-88
2022/09/27 08:48:36;;;;;;;26.15;3.83;;;;;;;;;;4931143;29;20130;-89
2022/09/27 08:51:03;;;;;;;19.30;2.97;;;;;;;;;;4932358;29;20111;-89
2022/09/27 08:53:48;;;;;;;22.98;3.50;;;;;;;;;;4931257;29;20028;-90
2022/09/27 08:56:19;;;;;;;20.77;3.28;;;;;;;;;;4930911;29;20045;-88
2022/09/27 08:58:58;;;;;;;28.48;3.50;;;;;;;;;;4930881;29;20043;-89
2022/09/27 09:01:25;;;;;;;30.20;3.78;;;;;;;;;;4930869;29;20122;-88
2022/09/27 09:03:57;;;;;;;27.17;3.42;;;;;;;;;;4932096;29;20032;-88
2022/09/27 09:06:27;;;;;;;23.63;3.85;;;;;;;;;;4932189;29;20034;-88
2022/09/27 09:09:12;;;;;;;24.48;3.38;;;;;;;;;;4931872;29;20106;-88
2022/09/27 09:14:45;;;;;;;30.63;4.80;;;;;;;;;;4932005;29;20067;-89
2022/09/27 09:17:27;;;;;;;26.48;3.70;;;;;;;;;;4931333;29;20023;-88
2022/09/27 09:20:11;;;;;;;31.75;4.38;;;;;;;;;;4931990;29;20067;-88
2022/09/27 09:22:41;;;;;;;32.60;4.38;;;;;;;;;;4932488;29;20032;-88
2022/09/27 09:25:10;;;;;;;35.97;4.57;;;;;;;;;;4930555;29;20023;-88
2022/09/27 09:27:45;;;;;;;23.17;3.83;;;;;;;;;;4933285;29;20063;-88
2022/09/27 09:30:18;;;;;;;31.27;4.63;;;;;;;;;;4936280;29;20051;-88
2022/09/27 09:32:50;;;;;;;30.20;4.75;;;;;;;;;;4935631;29;20059;-89
2022/09/27 09:35:25;;;;;;;30.65;4.13;;;;;;;;;;4935399;29;20098;-88
2022/09/27 09:38:00;;;;;;;29.95;3.70;;;;;;;;;;4934089;29;20028;-88
2022/09/27 09:40:26;;;;;;;29.20;4.47;;;;;;;;;;4935258;29;20044;-89
2022/09/27 09:42:57;;;;;;;33.17;4.95;;;;;;;;;;4935377;29;20024;-89
2022/09/27 09:45:28;;;;;;;34.00;4.13;;;;;;;;;;4933723;29;20388;-88
2022/09/27 09:48:02;;;;;;;25.42;4.75;;;;;;;;;;4933811;29;20024;-88
2022/09/27 09:50:31;;;;;;;33.03;3.78;;;;;;;;;;4935061;29;20028;-87
2022/09/27 09:53:03;;;;;;;25.20;4.25;;;;;;;;;;4933707;29;20079;-89
2022/09/27 09:55:31;;;;;;;32.58;4.65;;;;;;;;;;4934003;29;20023;-88
2022/09/27 09:58:03;;;;;;;30.67;4.82;;;;;;;;;;4933992;29;20024;-88
2022/09/27 10:00:29;;;;;;;29.90;4.43;;;;;;;;;;4934875;29;20055;-89
2022/09/27 10:02:58;;;;;;;27.40;4.15;;;;;;;;;;4933653;29;20019;-88
2022/09/27 10:05:25;;;;;;;30.50;4.65;;;;;;;;;;4933517;29;20023;-88
2022/09/27 10:07:53;;;;;;;27.77;4.40;;;;;;;;;;4935406;29;20082;-87
2022/09/27 10:10:20;;;;;;;27.90;4.85;;;;;;;;;;4940927;29;20031;-88
2022/09/27 10:12:47;;;;;;;29.63;4.00;;;;;;;;;;4938286;29;20031;-89
2022/09/27 10:15:18;;;;;;;24.05;4.00;;;;;;;;;;4938739;29;20514;-89
2022/09/27 10:17:46;;;;;;;20.23;4.30;;;;;;;;;;4935639;29;20027;-88
2022/09/27 10:20:33;;;;;;;30.48;4.90;;;;;;;;;;4933784;29;20511;-88
2022/09/27 10:23:13;;;;;;;27.33;5.13;;;;;;;;;;4933095;29;20488;-88
2022/09/27 10:26:07;;;;;;;23.52;4.63;;;;;;;;;;4934564;29;20027;-88
2022/09/27 10:28:44;;;;;;;27.88;4.82;;;;;;;;;;4932375;29;20175;-88
2022/09/27 10:31:12;;;;;;;28.48;4.28;;;;;;;;;;4934300;29;20035;-88
2022/09/27 10:33:39;;;;;;;35.35;4.22;;;;;;;;;;4933030;29;20063;-88
2022/09/27 10:36:21;;;;;;;26.77;4.37;;;;;;;;;;4932948;29;20023;-88
2022/09/27 10:38:54;;;;;;;30.40;4.68;;;;;;;;;;4933441;29;20028;-89
2022/09/27 10:41:20;;;;;;;27.42;4.55;;;;;;;;;;4932919;29;20163;-87
2022/09/27 10:43:46;;;;;;;30.70;4.65;;;;;;;;;;4933392;29;20082;-89
2022/09/27 10:46:13;;;;;;;29.00;4.13;;;;;;;;;;4933534;29;20428;-88
2022/09/27 10:48:41;;;;;;;27.48;4.57;;;;;;;;;;4932646;29;20039;-87
2022/09/27 10:51:21;;;;;;;24.60;4.60;;;;;;;;;;4932626;29;20441;-88
2022/09/27 10:53:48;;;;;;;29.00;4.68;;;;;;;;;;4934638;29;20074;-88
2022/09/27 10:56:33;;;;;;;25.13;4.82;;;;;;;;;;4933308;29;20028;-88
2022/09/27 10:59:00;;;;;;;29.17;4.05;;;;;;;;;;4932410;29;20028;-88
2022/09/27 11:01:38;;;;;;;22.38;3.70;;;;;;;;;;4932669;29;20052;-88
2022/09/27 11:04:04;;;;;;;32.00;4.43;;;;;;;;;;4932387;29;20388;-88
2022/09/27 11:06:36;;;;;;;22.98;4.30;;;;;;;;;;4932330;29;20023;-88
2022/09/27 11:09:10;;;;;;;30.42;4.57;;;;;;;;;;4932088;29;20042;-88
2022/09/27 11:11:37;;;;;;;44.83;8.25;;;;;;;;;;4932435;29;20016;-87
2022/09/27 11:14:06;;;;;;;29.63;4.82;;;;;;;;;;4932162;29;20079;-88
2022/09/27 11:16:35;;;;;;;37.83;5.43;;;;;;;;;;4933545;29;20109;-87
2022/09/27 11:19:22;;;;;;;29.23;4.85;;;;;;;;;;4932064;29;20043;-88
2022/09/27 11:22:07;;;;;;;24.98;5.30;;;;;;;;;;4932833;29;20024;-90
2022/09/27 11:24:46;;;;;;;29.35;4.78;;;;;;;;;;4933360;29;20028;-88
2022/09/27 11:27:27;;;;;;;30.92;4.82;;;;;;;;;;4933402;29;20027;-88
2022/09/27 11:30:03;;;;;;;33.70;4.63;;;;;;;;;;4931823;29;20137;-89
2022/09/27 11:32:35;;;;;;;22.02;3.75;;;;;;;;;;4933243;29;20035;-87
2022/09/27 11:35:20;;;;;;;24.90;4.15;;;;;;;;;;4931664;29;20142;-88
2022/09/27 11:38:09;;;;;;;29.42;4.68;;;;;;;;;;4932706;29;20035;-88
2022/09/27 11:40:54;;;;;;;31.90;5.07;;;;;;;;;;4929011;29;20542;-89
2022/09/27 11:43:32;;;;;;;38.03;5.22;;;;;;;;;;4933813;29;20023;-88
2022/09/27 11:46:11;;;;;;;30.83;4.53;;;;;;;;;;4931641;29;20031;-87
2022/09/27 11:48:52;;;;;;;33.53;4.72;;;;;;;;;;4931406;29;20049;-89
2022/09/27 11:51:44;;;;;;;32.53;5.10;;;;;;;;;;4932378;29;20054;-88
2022/09/27 11:54:23;;;;;;;33.47;4.82;;;;;;;;;;4923888;29;20063;-88
2022/09/27 11:56:48;;;;;;;;;;;;;;;;;;4932951;29;20032;-88
2022/09/27 11:59:17;;;;;;;24.98;4.57;;;;;;;;;;4932884;29;19910;-89
2022/09/27 12:01:53;;;;;;;38.67;5.50;;;;;;;;;;4931582;29;20484;-89
2022/09/27 12:04:26;;;;;;;33.92;4.68;;;;;;;;;;4933562;29;20028;-88
2022/09/27 12:07:05;;;;;;;28.05;5.18;;;;;;;;;;4931570;29;20031;-90
2022/09/27 12:09:35;;;;;;;33.95;4.78;;;;;;;;;;4931051;29;20039;-89
2022/09/27 12:12:05;;;;;;;27.58;4.70;;;;;;;;;;4932507;29;20023;-88
2022/09/27 12:14:36;;;;;;;29.52;5.13;;;;;;;;;;4931446;29;20572;-89
2022/09/27 12:17:03;;;;;;;22.75;4.63;;;;;;;;;;4931143;29;20038;-89
2022/09/27 12:19:30;;;;;;;29.83;5.57;;;;;;;;;;4930912;29;20039;-87
2022/09/27 12:21:57;;;;;;;29.63;4.87;;;;;;;;;;4931144;29;20392;-88
2022/09/27 12:24:24;;;;;;;25.77;4.53;;;;;;;;;;4932557;29;20263;-90
2022/09/27 12:26:53;;;;;;;31.75;4.68;;;;;;;;;;4933302;29;20035;-88
2022/09/27 12:29:26;;;;;;;30.25;5.25;;;;;;;;;;4933181;29;20496;-88
2022/09/27 12:32:08;;;;;;;29.27;4.07;;;;;;;;;;4931721;29;20043;-87
2022/09/27 12:35:01;;;;;;;27.08;4.32;;;;;;;;;;4932498;29;20348;-88
2022/09/27 12:37:28;;;;;;;32.60;5.50;;;;;;;;;;4930163;29;20535;-88
2022/09/27 12:40:01;;;;;;;23.45;4.60;;;;;;;;;;4930576;29;20102;-88
2022/09/27 12:42:38;;;;;;;33.85;5.15;;;;;;;;;;4932584;29;20075;-89
2022/09/27 12:45:05;;;;;;;33.88;5.07;;;;;;;;;;4932292;29;20055;-87
2022/09/27 12:47:34;;;;;;;30.52;4.57;;;;;;;;;;4933014;29;20500;-89
2022/09/27 12:50:19;;;;;;;31.85;4.57;;;;;;;;;;4932236;29;20416;-88
2022/09/27 12:52:48;;;;;;;29.27;4.70;;;;;;;;;;4933448;29;20036;-88
2022/09/27 12:55:26;;;;;;;34.63;4.15;;;;;;;;;;4933387;29;20032;-87
2022/09/27 12:58:12;;;;;;;29.40;4.60;;;;;;;;;;4931720;29;20035;-88
2022/09/27 13:00:54;;;;;;;23.80;4.78;;;;;;;;;;4930601;29;20448;-89
2022/09/27 13:03:35;;;;;;;28.38;4.22;;;;;;;;;;4937013;29;20170;-89
2022/09/27 13:06:10;;;;;;;34.80;4.95;;;;;;;;;;4934830;29;20031;-88
2022/09/27 13:08:48;;;;;;;33.33;4.88;;;;;;;;;;4934566;29;20023;-88
2022/09/27 13:11:14;;;;;;;;;;;;;;;;;;4934885;29;20576;-89
2022/09/27 13:13:41;;;;;;;33.70;4.60;;;;;;;;;;4935567;29;19947;-88
2022/09/27 13:16:07;;;;;;;28.27;4.72;;;;;;;;;;4934370;29;20027;-87
2022/09/27 13:18:37;;;;;;;29.00;4.30;;;;;;;;;;4934308;29;20472;-88
2022/09/27 13:21:05;;;;;;;28.42;4.50;;;;;;;;;;4934255;29;20504;-88
2022/09/27 13:23:31;;;;;;;31.05;4.82;;;;;;;;;;4935634;29;20031;-88
2022/09/27 13:25:59;;;;;;;32.20;5.30;;;;;;;;;;4935454;29;20031;-89
2022/09/27 13:28:31;;;;;;;23.83;4.40;;;;;;;;;;4934983;29;20126;-88
2022/09/27 13:30:58;;;;;;;26.33;4.20;;;;;;;;;;4934246;29;20388;-88
2022/09/27 13:33:33;;;;;;;30.48;4.60;;;;;;;;;;4936090;29;20036;-88
2022/09/27 13:36:20;;;;;;;29.98;4.65;;;;;;;;;;4934288;29;20023;-88
2022/09/27 13:38:57;;;;;;;20.48;3.83;;;;;;;;;;4934992;29;20038;-87
2022/09/27 13:41:23;;;;;;;25.10;4.35;;;;;;;;;;4934441;29;20046;-89
2022/09/27 13:44:12;;;;;;;21.58;3.38;;;;;;;;;;4935228;29;20047;-88
2022/09/27 13:46:44;;;;;;;23.60;4.00;;;;;;;;;;4930607;29;20040;-89
2022/09/27 13:49:17;;;;;;;23.27;3.78;;;;;;;;;;4935195;29;20046;-89
2022/09/27 13:51:46;;;;;;;23.85;3.85;;;;;;;;;;4935005;29;20031;-88
2022/09/27 13:54:31;;;;;;;21.55;3.45;;;;;;;;;;4934925;29;20031;-88
2022/09/27 13:56:57;;;;;;;19.55;3.22;;;;;;;;;;4935777;29;20066;-88
2022/09/27 13:59:24;;;;;;;19.73;3.20;;;;;;;;;;4935618;29;20063;-87
2022/09/27 14:01:52;;;;;;;20.10;3.10;;;;;;;;;;4933617;29;20027;-88
2022/09/27 14:04:18;;;;;;;25.25;3.78;;;;;;;;;;4934909;29;20246;-88
2022/09/27 14:06:47;;;;;;;21.15;3.55;;;;;;;;;;4934656;29;20469;-88
2022/09/27 14:09:21;;;;;;;20.67;3.33;;;;;;;;;;4933504;29;20080;-88
2022/09/27 14:11:52;;;;;;;22.15;3.38;;;;;;;;;;4934445;29;20024;-89
2022/09/27 14:14:21;;;;;;;19.58;3.35;;;;;;;;;;4933529;29;20027;-88
2022/09/27 14:16:47;;;;;;;20.42;3.05;;;;;;;;;;4933481;29;20030;-89
2022/09/27 14:19:16;;;;;;;22.83;3.50;;;;;;;;;;4933199;29;20118;-89
2022/09/27 14:21:46;;;;;;;20.13;4.38;;;;;;;;;;4933219;29;20159;-88
2022/09/27 14:24:30;;;;;;;20.05;3.13;;;;;;;;;;4933153;29;20552;-89
2022/09/27 14:27:16;;;;;;;20.48;4.00;;;;;;;;;;4934008;29;20023;-88
2022/09/27 14:29:45;;;;;;;21.05;3.92;;;;;;;;;;4933300;29;20031;-88
2022/09/27 14:32:19;;;;;;;26.98;4.20;;;;;;;;;;4933100;29;20035;-88
2022/09/27 14:34:45;;;;;;;24.08;4.30;;;;;;;;;;4932814;29;20054;-88
2022/09/27 14:37:24;;;;;;;17.98;4.03;;;;;;;;;;4934235;29;20143;-88
2022/09/27 14:40:05;;;;;;;18.00;3.63;;;;;;;;;;4932706;29;20035;-88
2022/09/27 14:42:35;;;;;;;19.17;3.25;;;;;;;;;;4932837;29;20030;-89
2022/09/27 14:45:04;;;;;;;23.15;4.22;;;;;;;;;;4932969;29;20492;-89
2022/09/27 14:47:30;;;;;;;27.13;3.85;;;;;;;;;;4934906;29;20078;-88
2022/09/27 14:49:58;;;;;;;23.00;3.28;;;;;;;;;;4933650;29;20404;-88
2022/09/27 14:52:30;;;;;;;17.63;3.35;;;;;;;;;;4932731;29;20036;-88
2022/09/27 14:54:57;;;;;;;17.70;2.97;;;;;;;;;;4933464;29;20034;-88
2022/09/27 14:57:24;;;;;;;23.27;3.28;;;;;;;;;;4931904;29;20040;-89